Aérodrome :
LOGIN :

S'inscrire | Disclaimer

   EN    FR    IT 

 










Légende :    VFR   VFR Marginal   IFR   IFR Intensif   IFR Très Intensif
Visi : 
Plafond : 
>= 8 km
>= 3000ft
5 à 8 km
1000 à 3000 ft
1500m à 5 km
500 à 1000 ft
800 à 1500m
200 à 500 ft
< 800m
< 200 ft
Symboles :   Orages  Brouillard  Fortes neiges  Fortes précipitations  Vent > 20 kt
SIGMETs :   Divers  Orages  Givrage  Turbulence  Onde Orograph.  Cendres Volcan.







- Altitude de l'aérodrome : 12 ft
- Code IATA : BCN


LEBL - Barcelone

DERNIER METAR :
  • 112130Z 34007KT CAVOK 09/06 Q1020 NOSIG

METARs EXPIRÉS :
  • 112100Z 32006KT CAVOK 09/07 Q1020 NOSIG
  • 112030Z 32006KT 9999 FEW025 09/07 Q1019 NOSIG
  • 112000Z 31005KT 9999 FEW025 10/07 Q1020 NOSIG
  • 111930Z 32006KT 230V360 9999 FEW025 10/07 Q1019 NOSIG
  • 111900Z 31007KT 9999 FEW025 10/07 Q1020 NOSIG

TAF TAF LEBL
Valide du 11 à 18h jusqu'au 12 à 18h UTC


111700Z 1118/1218 VRB04KT 9999 FEW025 TX15/1212Z TN07/1206Z
BECMG 1118/1121 34010KT
Pas de NOTAMs connus pour ce terrain.



MET'MAP, la Météo Aéronautique d'un coup d'oeil ! - Copyright ORBIFLY Décembre 2007 - Disclaimer

ORBIFLY MET'MAP TEAM :

Programmation & Développement : Alexandra Zaïnal
Conception & Développement : Baudouin d'Aumeries
Co-Programmation & Développement : Marc-Olivier Méhu
Soutien technique & logistique : Manuel Goepfert

Contact : metmap@orbifly.com




SOURCES & CREDITS :

   NOAA